Time;durP1;ratioP1;P1;durP2;ratioP2;P2;SDS_P1;SDS_P2;PMS_P1;PMS_P2;Temp;Humidity;BMP_temperature;BMP_pressure;BME280_temperature;BME280_humidity;BME280_pressure;Samples;Min_cycle;Max_cycle;Signal;HPM_P1;HPM_P2
2022/03/11 00:02:25;;;;;;;;;30.00;28.00;;;;;13.01;47.97;100856.22;5058493;28;45272;-67
2022/03/11 00:04:51;;;;;;;;;31.67;30.00;;;;;12.98;48.72;100848.50;5056441;28;47704;-67
2022/03/11 00:07:16;;;;;;;;;35.67;30.00;;;;;13.03;48.00;100859.56;5057210;28;45417;-67
2022/03/11 00:09:42;;;;;;;;;27.00;25.33;;;;;13.00;48.04;100851.84;5056746;28;45321;-68
2022/03/11 00:12:08;;;;;;;;;34.33;30.00;;;;;12.94;48.29;100852.47;5058222;28;45203;-67
2022/03/11 00:14:34;;;;;;;;;30.33;27.33;;;;;12.77;48.59;100829.34;5050287;28;45637;-68
2022/03/11 00:17:00;;;;;;;;;28.00;26.67;;;;;12.27;48.98;100749.16;5055325;28;45476;-67
2022/03/11 00:19:25;;;;;;;;;29.00;28.00;;;;;12.85;48.98;100844.59;5040680;28;45365;-67
2022/03/11 00:21:51;;;;;;;;;28.33;28.33;;;;;12.83;48.88;100843.91;5037924;28;45244;-67
2022/03/11 00:24:16;;;;;;;;;30.67;28.00;;;;;12.66;49.15;100818.94;5037158;28;46779;-67
2022/03/11 00:26:41;;;;;;;;;31.00;27.00;;;;;12.79;48.71;100841.53;5037528;28;45323;-66
2022/03/11 00:29:07;;;;;;;;;33.33;28.33;;;;;12.77;48.88;100840.03;5037805;28;45319;-68
2022/03/11 00:31:32;;;;;;;;;28.00;28.00;;;;;12.58;49.08;100806.38;5049199;28;45469;-67
2022/03/11 00:33:59;;;;;;;;;33.00;31.00;;;;;12.72;49.42;100828.97;5056271;28;45658;-65
2022/03/11 00:36:24;;;;;;;;;27.33;26.00;;;;;12.72;49.19;100826.31;5056860;28;46077;-67
2022/03/11 00:38:50;;;;;;;;;26.33;23.33;;;;;12.75;48.85;100826.00;5056199;28;45324;-67
2022/03/11 00:41:16;;;;;;;;;26.67;25.67;;;;;12.72;49.48;100821.81;5056902;28;45220;-66
2022/03/11 00:43:42;;;;;;;;;27.33;25.67;;;;;12.65;49.31;100814.59;5057208;28;46820;-66
2022/03/11 00:46:07;;;;;;;;;33.33;31.67;;;;;12.19;49.90;100756.06;5043159;28;45544;-66
2022/03/11 00:48:33;;;;;;;;;31.67;29.67;;;;;12.04;49.45;100740.81;5037226;28;45252;-66
2022/03/11 00:50:58;;;;;;;;;31.67;28.00;;;;;12.40;49.81;100785.06;5037354;28;45200;-67
2022/03/11 00:53:24;;;;;;;;;25.33;24.67;;;;;12.66;49.54;100817.13;5036965;28;45595;-66
2022/03/11 00:55:50;;;;;;;;;30.00;28.33;;;;;12.16;49.03;100723.56;5046068;28;45804;-68
2022/03/11 00:58:16;;;;;;;;;25.67;23.67;;;;;12.56;49.14;100778.19;5057246;28;45306;-67
2022/03/11 01:00:41;;;;;;;;;35.00;30.00;;;;;12.14;49.06;100709.56;5057719;28;45430;-66
2022/03/11 01:03:06;;;;;;;;;29.67;29.67;;;;;12.40;49.71;100763.72;5057020;28;45576;-67
2022/03/11 01:05:32;;;;;;;;;30.33;26.67;;;;;12.42;49.89;100776.94;5055493;28;45452;-67
2022/03/11 01:07:57;;;;;;;;;29.67;26.00;;;;;12.39;50.16;100783.38;5056696;28;45483;-67
2022/03/11 01:10:23;;;;;;;;;26.67;25.33;;;;;12.33;50.34;100770.69;5057164;28;45252;-67
2022/03/11 01:12:48;;;;;;;;;32.00;30.00;;;;;12.41;50.62;100796.56;5056943;28;45574;-66
2022/03/11 01:15:14;;;;;;;;;24.67;22.67;;;;;12.41;50.15;100786.75;5054164;28;45512;-66
2022/03/11 01:17:39;;;;;;;;;29.00;24.67;;;;;12.48;50.26;100797.63;5055723;28;45350;-67
2022/03/11 01:20:06;;;;;;;;;28.33;26.67;;;;;12.57;49.77;100793.19;5056040;28;45395;-67
2022/03/11 01:22:32;;;;;;;;;25.33;24.33;;;;;12.63;50.02;100789.91;5045594;28;45882;-67
2022/03/11 01:24:58;;;;;;;;;27.00;26.67;;;;;12.21;49.86;100726.59;5036513;28;45343;-67
2022/03/11 01:27:23;;;;;;;;;29.67;28.67;;;;;12.56;50.08;100784.34;5036704;28;45475;-66
2022/03/11 01:29:52;;;;;;;;;24.67;21.67;;;;;12.31;50.44;100738.00;5037052;28;45186;-68
2022/03/11 01:32:17;;;;;;;;;32.00;30.00;;;;;12.00;50.35;100672.81;5036519;28;46155;-67
2022/03/11 01:34:43;;;;;;;;;30.00;26.67;;;;;12.45;50.59;100750.78;5036218;28;45576;-67
2022/03/11 01:37:09;;;;;;;;;28.00;24.67;;;;;12.15;50.33;100701.41;5036481;28;45375;-67
2022/03/11 01:39:34;;;;;;;;;29.67;29.67;;;;;12.54;49.87;100774.84;5036957;28;45331;-67
2022/03/11 01:41:59;;;;;;;;;31.67;27.67;;;;;12.46;50.04;100773.78;5036400;28;46936;-66
2022/03/11 01:44:26;;;;;;;;;31.33;28.33;;;;;12.38;50.26;100771.06;5036599;28;45187;-68
2022/03/11 01:46:52;;;;;;;;;34.67;27.67;;;;;12.29;50.42;100748.00;5054085;28;45237;-66
2022/03/11 01:49:18;;;;;;;;;33.67;30.00;;;;;12.32;50.69;100761.00;5056656;28;45633;-67
2022/03/11 01:51:44;;;;;;;;;25.33;23.33;;;;;12.17;50.66;100741.22;5037078;28;45823;-67
2022/03/11 01:54:10;;;;;;;;;30.00;26.00;;;;;12.27;50.55;100752.66;5037613;28;45483;-67
2022/03/11 01:56:37;;;;;;;;;23.67;21.00;;;;;12.29;50.48;100744.50;5039664;28;45394;-66
2022/03/11 01:59:04;;;;;;;;;29.00;28.33;;;;;12.28;50.79;100743.66;5040195;28;45409;-66
2022/03/11 02:01:29;;;;;;;;;30.67;29.67;;;;;12.22;50.90;100744.28;5039840;28;46479;-65
2022/03/11 02:03:57;;;;;;;;;32.33;24.00;;;;;12.13;51.27;100745.19;5038191;28;46334;-68
2022/03/11 02:06:23;;;;;;;;;28.33;25.00;;;;;12.15;51.07;100759.22;5039985;28;45240;-66
2022/03/11 02:08:49;;;;;;;;;25.00;23.33;;;;;12.18;51.07;100745.56;5040171;28;45437;-66
2022/03/11 02:11:15;;;;;;;;;21.00;20.00;;;;;12.02;51.63;100721.47;5037906;28;46648;-66
2022/03/11 02:13:49;;;;;;;;;29.00;29.00;;;;;12.11;51.09;100757.84;5039509;28;45291;-67
2022/03/11 02:16:20;;;;;;;;;26.67;25.33;;;;;12.07;51.24;100736.00;5054321;28;45355;-68
2022/03/11 02:18:46;;;;;;;;;23.67;23.00;;;;;11.72;51.32;100685.38;5049024;28;45425;-65
2022/03/11 02:21:13;;;;;;;;;31.33;25.67;;;;;12.05;52.13;100732.66;5039280;28;46805;-66
2022/03/11 02:23:44;;;;;;;;;25.00;24.67;;;;;11.37;52.07;100646.25;5039421;28;45232;-66
2022/03/11 02:26:10;;;;;;;;;23.33;23.00;;;;;12.02;52.18;100748.13;5048226;28;45410;-66
2022/03/11 02:28:35;;;;;;;;;25.33;24.33;;;;;11.93;52.14;100733.88;5059577;28;45425;-67
2022/03/11 02:31:01;;;;;;;;;28.33;25.00;;;;;12.02;51.81;100737.47;5059345;28;45538;-67
2022/03/11 02:33:27;;;;;;;;;24.00;22.67;;;;;11.94;52.18;100724.03;5055928;28;45932;-67
2022/03/11 02:35:53;;;;;;;;;27.00;25.00;;;;;11.98;51.46;100730.75;5059475;28;45273;-65
2022/03/11 02:38:19;;;;;;;;;28.33;25.00;;;;;11.53;51.80;100662.38;5057698;28;46065;-66
2022/03/11 02:40:44;;;;;;;;;26.67;24.67;;;;;11.97;52.29;100729.91;5059432;28;47052;-66
2022/03/11 02:43:10;;;;;;;;;33.33;27.33;;;;;11.94;52.27;100727.56;5059054;28;45508;-66
2022/03/11 02:45:35;;;;;;;;;24.33;20.33;;;;;11.82;51.74;100695.00;5057156;28;45340;-67
2022/03/11 02:48:00;;;;;;;;;26.00;21.67;;;;;11.90;52.43;100706.69;5037995;28;45470;-66
2022/03/11 02:50:26;;;;;;;;;29.67;27.67;;;;;11.74;52.10;100680.72;5039163;28;45456;-66
2022/03/11 02:52:51;;;;;;;;;25.00;23.00;;;;;11.86;52.77;100707.00;5037781;28;45356;-66
2022/03/11 02:55:17;;;;;;;;;21.33;21.33;;;;;11.38;52.23;100643.44;5039242;28;45639;-66
2022/03/11 02:57:42;;;;;;;;;26.00;25.00;;;;;11.83;52.44;100722.47;5039475;28;45420;-66
2022/03/11 03:00:08;;;;;;;;;27.00;25.00;;;;;11.82;52.47;100715.47;5041329;28;47137;-66
2022/03/11 03:02:34;;;;;;;;;27.33;26.33;;;;;11.58;52.62;100663.59;5059081;28;45449;-67
2022/03/11 03:04:59;;;;;;;;;25.00;23.33;;;;;11.78;52.58;100712.25;5058618;28;45408;-67
2022/03/11 03:07:25;;;;;;;;;25.33;22.67;;;;;11.74;53.29;100710.84;5054296;28;45584;-65
2022/03/11 03:09:50;;;;;;;;;26.00;23.67;;;;;11.63;53.15;100702.28;5037161;28;48261;-66
2022/03/11 03:12:15;;;;;;;;;28.00;23.00;;;;;11.36;53.32;100644.59;5038793;28;45521;-67
2022/03/11 03:14:41;;;;;;;;;25.33;22.00;;;;;11.50;53.21;100670.69;5038907;28;45232;-66
2022/03/11 03:17:06;;;;;;;;;24.33;23.33;;;;;11.66;53.16;100689.47;5038900;28;45216;-66
2022/03/11 03:19:32;;;;;;;;;28.67;24.33;;;;;11.62;53.18;100682.78;5038714;28;48052;-65
2022/03/11 03:22:00;;;;;;;;;23.00;20.33;;;;;11.49;53.78;100669.84;5051646;28;45880;-66
2022/03/11 03:24:26;;;;;;;;;27.00;21.67;;;;;11.34;53.83;100635.91;5058720;28;45457;-67
2022/03/11 03:26:51;;;;;;;;;21.67;21.67;;;;;11.52;54.02;100672.22;5058561;28;45530;-67
2022/03/11 03:29:16;;;;;;;;;26.00;23.67;;;;;11.46;53.48;100658.66;5058318;28;46263;-68
2022/03/11 03:31:41;;;;;;;;;31.00;27.00;;;;;11.44;53.77;100658.81;5057286;28;45671;-66
2022/03/11 03:34:09;;;;;;;;;27.00;25.00;;;;;11.31;54.30;100647.72;5056444;28;45588;-67
2022/03/11 03:36:35;;;;;;;;;28.00;23.33;;;;;11.41;54.51;100674.25;5057511;28;45507;-67
2022/03/11 03:39:00;;;;;;;;;22.33;21.33;;;;;11.42;54.56;100675.94;5058303;28;46028;-66
2022/03/11 03:41:25;;;;;;;;;18.00;18.00;;;;;11.47;53.91;100673.66;5057021;28;45335;-66
2022/03/11 03:43:51;;;;;;;;;25.33;24.33;;;;;11.26;53.94;100623.38;5058086;28;45441;-66
2022/03/11 03:46:16;;;;;;;;;22.00;22.00;;;;;11.50;53.86;100681.34;5055685;28;45541;-66
2022/03/11 03:48:42;;;;;;;;;24.33;23.00;;;;;11.50;54.33;100668.84;5052299;28;47171;-65
2022/03/11 03:51:07;;;;;;;;;19.00;18.00;;;;;11.00;53.80;100588.66;5038034;28;45464;-66
2022/03/11 03:53:32;;;;;;;;;19.67;18.33;;;;;11.49;54.46;100661.03;5038273;28;45303;-66
2022/03/11 03:55:58;;;;;;;;;25.00;24.00;;;;;11.21;54.04;100599.88;5038444;28;45506;-66
2022/03/11 03:58:23;;;;;;;;;23.00;18.67;;;;;11.37;54.27;100625.78;5037861;28;46005;-66
2022/03/11 04:00:49;;;;;;;;;16.67;16.67;;;;;11.35;54.16;100621.63;5037928;28;45372;-67
2022/03/11 04:03:14;;;;;;;;;21.00;21.00;;;;;11.53;54.58;100655.25;5037905;28;45290;-68
2022/03/11 04:05:40;;;;;;;;;21.00;19.67;;;;;11.23;54.73;100618.38;5038334;28;45450;-66
2022/03/11 04:08:05;;;;;;;;;20.33;20.33;;;;;11.47;54.54;100647.88;5053093;28;46365;-66
2022/03/11 04:10:30;;;;;;;;;20.33;19.67;;;;;11.49;54.41;100647.72;5040217;28;45264;-66
2022/03/11 04:12:57;;;;;;;;;21.00;19.67;;;;;11.46;54.38;100642.69;5056630;28;45382;-69
2022/03/11 04:15:22;;;;;;;;;25.00;22.67;;;;;11.48;54.75;100641.56;5056355;28;45478;-67
2022/03/11 04:17:47;;;;;;;;;20.00;18.33;;;;;11.47;54.89;100645.22;5044174;28;46511;-66
2022/03/11 04:20:13;;;;;;;;;21.67;19.67;;;;;11.38;55.24;100629.28;5037460;28;45382;-67
2022/03/11 04:22:45;;;;;;;;;21.67;21.00;;;;;11.28;55.91;100622.22;5037556;28;45327;-65
2022/03/11 04:25:12;;;;;;;;;22.67;18.67;;;;;11.24;56.01;100634.19;5037982;28;45545;-67
2022/03/11 04:27:38;;;;;;;;;23.67;21.33;;;;;11.10;55.84;100624.03;5037209;28;45945;-67
2022/03/11 04:30:04;;;;;;;;;20.00;19.00;;;;;11.13;56.13;100633.53;5037457;28;45349;-67
2022/03/11 04:32:30;;;;;;;;;22.33;22.33;;;;;11.01;56.05;100646.19;5037642;28;45481;-69
2022/03/11 04:34:55;;;;;;;;;22.00;19.67;;;;;10.77;56.60;100592.75;5037671;28;45624;-66
2022/03/11 04:37:20;;;;;;;;;18.67;18.67;;;;;10.07;56.27;100483.44;5037263;28;45843;-68
2022/03/11 04:39:46;;;;;;;;;20.33;18.67;;;;;11.06;56.51;100638.63;5037260;28;45469;-66
2022/03/11 04:42:11;;;;;;;;;17.67;16.67;;;;;10.76;56.44;100586.59;5037518;28;45846;-67
2022/03/11 04:44:36;;;;;;;;;18.67;18.67;;;;;11.02;56.46;100628.44;5037606;28;45434;-65
2022/03/11 04:47:03;;;;;;;;;18.33;16.67;;;;;11.01;56.48;100645.38;5032818;28;48209;-67
2022/03/11 04:49:28;;;;;;;;;20.00;17.67;;;;;10.93;56.70;100638.16;5017113;28;45477;-66
2022/03/11 04:51:53;;;;;;;;;17.00;14.67;;;;;10.81;56.85;100616.25;5022425;28;45356;-66
2022/03/11 04:54:19;;;;;;;;;15.33;13.00;;;;;10.70;56.93;100604.97;5037513;28;45295;-68
2022/03/11 04:56:44;;;;;;;;;23.33;23.33;;;;;10.57;56.88;100584.03;5036848;28;46330;-67
2022/03/11 04:59:09;;;;;;;;;23.00;20.33;;;;;10.81;57.20;100618.03;5036990;28;45300;-67
2022/03/11 05:01:35;;;;;;;;;21.00;21.00;;;;;10.78;57.43;100628.97;5035869;28;45479;-68
2022/03/11 05:04:00;;;;;;;;;17.33;16.33;;;;;10.71;57.77;100622.59;5037236;28;45507;-66
2022/03/11 05:06:25;;;;;;;;;20.33;17.67;;;;;10.72;57.56;100629.59;5032025;28;48568;-67
2022/03/11 05:08:51;;;;;;;;;18.00;17.00;;;;;10.81;57.73;100621.56;5016982;28;45987;-66
2022/03/11 05:11:16;;;;;;;;;18.67;16.67;;;;;10.81;57.42;100629.56;5015564;28;45381;-68
2022/03/11 05:13:42;;;;;;;;;18.67;18.67;;;;;10.58;57.36;100583.88;5018270;28;45497;-67
2022/03/11 05:16:07;;;;;;;;;21.00;14.67;;;;;10.83;57.55;100622.25;5055805;28;46625;-67
2022/03/11 05:18:32;;;;;;;;;19.33;18.00;;;;;10.68;57.76;100601.63;5056942;28;45478;-66
2022/03/11 05:20:58;;;;;;;;;17.33;16.00;;;;;10.75;57.96;100613.34;5037761;28;45414;-66
2022/03/11 05:23:23;;;;;;;;;16.00;14.00;;;;;10.46;57.92;100577.09;5036986;28;45337;-64
2022/03/11 05:25:49;;;;;;;;;19.00;18.00;;;;;10.57;58.31;100606.13;5036614;28;46396;-67
2022/03/11 05:28:14;;;;;;;;;17.33;16.00;;;;;10.21;58.76;100543.22;5039427;28;45522;-67
2022/03/11 05:30:40;;;;;;;;;22.00;17.67;;;;;10.39;58.66;100576.00;5040057;28;45402;-69
2022/03/11 05:33:06;;;;;;;;;16.67;15.67;;;;;10.52;58.71;100594.28;5040269;28;45201;-67
2022/03/11 05:35:31;;;;;;;;;16.33;14.33;;;;;10.43;58.51;100587.19;5039904;28;46388;-66
2022/03/11 05:37:57;;;;;;;;;16.33;15.00;;;;;10.47;58.86;100592.06;5039093;28;45520;-68
2022/03/11 05:40:22;;;;;;;;;19.00;17.00;;;;;10.13;58.72;100524.50;5042308;28;45729;-66
2022/03/11 05:42:48;;;;;;;;;14.33;14.33;;;;;10.24;59.06;100561.53;5060464;28;45455;-66
2022/03/11 05:45:14;;;;;;;;;17.67;16.33;;;;;9.94;59.14;100509.47;5055122;28;48237;-66
2022/03/11 05:47:39;;;;;;;;;17.67;15.00;;;;;9.75;59.43;100482.00;5057747;28;45253;-64
2022/03/11 05:50:06;;;;;;;;;16.33;14.00;;;;;10.26;59.57;100576.34;5058687;28;45335;-67
2022/03/11 05:52:34;;;;;;;;;14.00;14.00;;;;;10.17;59.90;100574.53;5060247;28;45456;-68
2022/03/11 05:54:59;;;;;;;;;14.00;14.00;;;;;10.12;60.09;100562.66;5019748;28;46672;-67
2022/03/11 05:57:25;;;;;;;;;18.67;17.67;;;;;10.20;59.99;100574.22;5019281;28;45863;-66
2022/03/11 05:59:50;;;;;;;;;15.00;13.00;;;;;10.07;60.38;100561.28;5020491;28;45362;-67
2022/03/11 06:02:15;;;;;;;;;11.00;9.00;;;;;9.90;60.56;100542.63;5030734;28;45560;-67
2022/03/11 06:04:41;;;;;;;;;15.00;15.00;;;;;10.12;60.32;100570.63;5059869;28;45364;-67
2022/03/11 06:07:07;;;;;;;;;11.33;11.33;;;;;10.10;60.28;100570.78;5059523;28;45349;-67
2022/03/11 06:09:32;;;;;;;;;15.67;14.00;;;;;10.17;60.49;100581.66;5059766;28;45480;-67
2022/03/11 06:11:58;;;;;;;;;16.00;14.33;;;;;10.18;60.57;100584.16;5042396;28;45206;-67
2022/03/11 06:14:23;;;;;;;;;17.33;14.00;;;;;10.11;60.61;100572.47;5039448;28;46288;-67
2022/03/11 06:16:48;;;;;;;;;20.00;16.00;;;;;10.22;60.61;100584.78;5045452;28;45204;-68
2022/03/11 06:19:14;;;;;;;;;19.33;15.33;;;;;10.14;60.08;100568.66;5041038;28;45392;-69
2022/03/11 06:21:39;;;;;;;;;12.00;12.00;;;;;10.31;60.08;100578.56;5058609;28;45354;-68
2022/03/11 06:24:05;;;;;;;;;19.33;16.00;;;;;10.29;59.82;100580.53;5059078;28;45333;-66
2022/03/11 06:26:31;;;;;;;;;12.33;11.00;;;;;10.33;59.84;100582.75;5057308;28;45446;-67
2022/03/11 06:28:56;;;;;;;;;15.00;14.00;;;;;10.33;60.33;100576.59;5059754;28;45456;-68
2022/03/11 06:31:21;;;;;;;;;18.33;15.67;;;;;10.03;59.78;100528.03;5059670;28;45302;-67
2022/03/11 06:33:47;;;;;;;;;11.33;10.00;;;;;10.12;60.16;100542.25;5046423;28;46456;-67
2022/03/11 06:36:12;;;;;;;;;11.33;11.00;;;;;9.80;60.05;100478.91;5039255;28;45441;-69
2022/03/11 06:38:38;;;;;;;;;13.33;12.00;;;;;10.40;60.30;100572.34;5038347;28;45602;-67
2022/03/11 06:41:03;;;;;;;;;13.00;11.67;;;;;9.80;59.22;100462.13;5049245;28;45479;-67
2022/03/11 06:43:29;;;;;;;;;10.67;10.67;;;;;10.53;59.45;100575.53;5056599;28;47074;-68
2022/03/11 06:45:54;;;;;;;;;10.33;8.67;;;;;10.43;59.56;100548.16;5056140;28;45275;-68
2022/03/11 06:48:21;;;;;;;;;10.00;10.00;;;;;9.96;59.62;100468.50;5058889;28;45559;-69
2022/03/11 06:50:50;;;;;;;;;14.33;14.33;;;;;10.19;59.60;100518.59;5041803;28;45583;-67
2022/03/11 06:53:28;;;;;;;;;17.33;15.00;;;;;10.25;59.63;100526.84;5051290;28;46475;-68
2022/03/11 06:56:04;;;;;;;;;12.67;11.00;;;;;10.55;59.47;100568.22;5050745;28;45309;-70
2022/03/11 06:58:43;;;;;;;;;12.00;11.00;;;;;10.60;59.41;100568.63;5039607;28;45447;-68
2022/03/11 07:01:16;;;;;;;;;11.00;11.00;;;;;10.31;59.64;100520.94;5038306;28;45668;-67
2022/03/11 07:06:46;;;;;;;;;13.67;12.00;;;;;10.41;58.88;100509.41;5037487;28;45489;-67
2022/03/11 07:09:11;;;;;;;;;14.50;13.50;;;;;10.74;59.02;100539.88;5039018;28;45462;-68
2022/03/11 07:11:37;;;;;;;;;16.00;13.67;;;;;10.93;58.91;100561.84;5044171;28;45434;-69
2022/03/11 07:14:02;;;;;;;;;10.67;10.00;;;;;10.84;58.35;100535.34;5036983;28;47276;-66
2022/03/11 07:16:28;;;;;;;;;11.00;11.00;;;;;11.16;57.97;100564.88;5039721;28;45475;-67
2022/03/11 07:18:53;;;;;;;;;9.67;9.67;;;;;11.13;58.13;100557.22;5039143;28;45284;-66
2022/03/11 07:21:19;;;;;;;;;10.00;9.00;;;;;11.19;57.94;100558.44;5037114;28;45343;-71
2022/03/11 07:23:46;;;;;;;;;11.00;10.00;;;;;11.35;57.04;100549.75;5053985;28;45669;-74
2022/03/11 07:26:11;;;;;;;;;9.33;9.33;;;;;10.85;57.44;100465.19;5051286;28;45417;-67
2022/03/11 07:28:37;;;;;;;;;10.33;10.33;;;;;11.37;56.93;100556.59;5052990;28;45859;-67
2022/03/11 07:31:02;;;;;;;;;11.67;11.67;;;;;11.38;57.34;100546.78;5038782;28;45513;-68
2022/03/11 07:33:28;;;;;;;;;9.00;9.00;;;;;11.44;57.35;100540.88;5038496;28;45958;-67
2022/03/11 07:35:53;;;;;;;;;13.67;12.67;;;;;11.54;57.21;100542.44;5036572;28;45420;-68
2022/03/11 07:38:18;;;;;;;;;9.67;8.67;;;;;11.08;56.32;100428.31;5052992;28;45374;-68
2022/03/11 07:40:44;;;;;;;;;10.00;9.00;;;;;11.78;56.24;100522.28;5058069;28;45417;-66
2022/03/11 07:43:13;;;;;;;;;13.00;12.00;;;;;11.92;56.13;100524.41;5054065;28;45664;-70
2022/03/11 07:45:38;;;;;;;;;13.33;10.33;;;;;12.08;55.03;100518.31;5039820;28;45520;-68
2022/03/11 07:48:04;;;;;;;;;7.67;7.33;;;;;12.33;54.38;100522.75;5039677;28;45618;-68
2022/03/11 07:50:29;;;;;;;;;11.00;10.00;;;;;12.55;54.53;100509.84;5036913;28;45512;-68
2022/03/11 07:52:54;;;;;;;;;10.67;10.67;;;;;12.81;53.91;100518.56;5035669;28;46301;-66
2022/03/11 07:55:22;;;;;;;;;10.33;8.33;;;;;12.28;53.61;100415.78;5044939;28;45492;-70
2022/03/11 07:57:47;;;;;;;;;8.33;8.33;;;;;12.96;52.50;100511.59;5046389;28;45556;-68
2022/03/11 08:00:13;;;;;;;;;12.00;9.67;;;;;12.72;52.66;100484.88;5053000;28;45545;-71
2022/03/11 08:02:39;;;;;;;;;9.00;7.00;;;;;12.71;53.33;100493.88;5044553;28;45824;-68
2022/03/11 08:05:05;;;;;;;;;8.00;7.00;;;;;12.76;52.95;100496.88;5037217;28;45643;-67
2022/03/11 08:07:32;;;;;;;;;10.33;9.00;;;;;12.94;52.38;100494.91;5051397;28;45591;-68
2022/03/11 08:09:58;;;;;;;;;10.00;9.67;;;;;12.97;51.79;100409.19;5055954;28;45489;-65
2022/03/11 08:12:24;;;;;;;;;11.33;11.33;;;;;14.01;50.54;100485.78;5041851;28;45842;-68
2022/03/11 08:14:49;;;;;;;;;6.00;6.00;;;;;14.32;49.53;100497.38;5039311;28;45312;-69
2022/03/11 08:17:15;;;;;;;;;7.67;7.67;;;;;14.24;48.70;100467.16;5041758;28;45475;-67
2022/03/11 08:19:40;;;;;;;;;8.00;8.00;;;;;14.57;48.70;100494.59;5036510;28;45240;-69
2022/03/11 08:22:07;;;;;;;;;8.33;8.33;;;;;14.78;47.95;100494.78;5034947;28;47479;-71
2022/03/11 08:24:32;;;;;;;;;9.00;7.00;;;;;14.85;47.47;100495.78;5037021;28;45631;-70
2022/03/11 08:27:00;;;;;;;;;6.67;6.00;;;;;14.93;46.88;100488.69;5036528;28;45785;-69
2022/03/11 08:29:32;;;;;;;;;10.00;9.00;;;;;14.82;47.18;100485.44;5051431;28;45771;-69
2022/03/11 08:31:59;;;;;;;;;8.33;7.33;;;;;14.57;46.96;100408.97;5042568;28;45801;-69
2022/03/11 08:34:25;;;;;;;;;8.33;7.33;;;;;15.18;45.94;100420.53;5037055;28;45455;-69
2022/03/11 08:36:50;;;;;;;;;8.33;8.00;;;;;15.46;46.27;100461.78;5046424;28;45391;-69
2022/03/11 08:39:16;;;;;;;;;7.67;7.67;;;;;15.65;45.82;100475.72;5042809;28;45558;-70
2022/03/11 08:41:42;;;;;;;;;8.00;8.00;;;;;15.75;45.09;100462.84;5035178;28;47566;-70
2022/03/11 08:44:07;;;;;;;;;8.33;7.00;;;;;15.85;44.91;100452.69;5037146;28;45450;-69
2022/03/11 08:46:34;;;;;;;;;9.33;6.67;;;;;15.93;44.64;100451.75;5035755;28;45470;-70
2022/03/11 08:48:59;;;;;;;;;7.33;6.33;;;;;16.26;44.46;100458.38;5036180;28;45617;-70
2022/03/11 08:51:25;;;;;;;;;5.00;4.00;;;;;16.26;43.31;100441.47;5039558;28;46431;-70
2022/03/11 08:53:51;;;;;;;;;7.67;5.67;;;;;16.29;43.89;100457.19;5052325;28;45440;-70
2022/03/11 08:56:21;;;;;;;;;8.67;6.67;;;;;16.22;43.61;100445.50;5045841;28;46099;-70
2022/03/11 08:58:47;;;;;;;;;5.00;5.00;;;;;16.25;43.30;100426.38;5055891;28;45387;-70
2022/03/11 09:01:12;;;;;;;;;8.33;7.67;;;;;16.44;43.19;100463.34;5053891;28;45325;-70
2022/03/11 09:03:38;;;;;;;;;6.67;4.00;;;;;16.45;43.14;100458.81;5046742;28;45635;-70
2022/03/11 09:06:03;;;;;;;;;4.00;4.00;;;;;16.36;42.98;100450.84;5054170;28;45244;-70
2022/03/11 09:08:28;;;;;;;;;9.00;8.33;;;;;16.36;43.23;100452.72;5052360;28;45630;-70
2022/03/11 09:10:54;;;;;;;;;5.33;5.33;;;;;16.31;43.48;100436.34;5037387;28;48332;-71
2022/03/11 09:13:19;;;;;;;;;6.00;4.00;;;;;16.22;43.44;100399.91;5036275;28;45276;-70
2022/03/11 09:15:44;;;;;;;;;8.00;5.00;;;;;16.50;43.00;100418.81;5035249;28;45432;-69
2022/03/11 09:18:15;;;;;;;;;3.00;2.00;;;;;16.44;42.76;100398.94;5039785;28;45460;-70
2022/03/11 09:20:41;;;;;;;;;6.00;6.00;;;;;16.47;42.73;100382.47;5045212;28;46246;-70
2022/03/11 09:23:07;;;;;;;;;5.33;5.33;;;;;16.42;42.58;100374.16;5045262;28;45550;-70
2022/03/11 09:25:33;;;;;;;;;10.33;7.67;;;;;16.78;42.25;100414.38;5032863;28;45464;-72
2022/03/11 09:27:58;;;;;;;;;3.00;3.00;;;;;16.97;41.87;100445.13;5034548;28;45665;-71
2022/03/11 09:30:23;;;;;;;;;3.67;2.67;;;;;17.01;41.97;100432.97;5036799;28;46786;-73
2022/03/11 09:32:49;;;;;;;;;6.00;6.00;;;;;16.60;41.81;100350.38;5036417;28;45446;-71
2022/03/11 09:35:17;;;;;;;;;3.00;3.00;;;;;17.11;41.44;100428.09;5036887;28;45608;-69
2022/03/11 09:37:43;;;;;;;;;3.00;3.00;;;;;17.18;41.52;100438.88;5036942;28;45537;-70
2022/03/11 09:40:10;;;;;;;;;5.67;3.67;;;;;17.40;41.38;100437.00;5034562;28;46102;-72
2022/03/11 09:42:35;;;;;;;;;5.67;3.33;;;;;17.67;40.83;100438.84;5037579;28;45441;-72
2022/03/11 09:45:01;;;;;;;;;5.67;5.00;;;;;17.67;39.95;100413.81;5056147;28;45287;-70
2022/03/11 09:47:26;;;;;;;;;4.00;3.00;;;;;17.50;39.95;100429.44;5047557;28;45404;-72
2022/03/11 09:49:52;;;;;;;;;6.33;4.00;;;;;17.35;40.48;100434.91;5050223;28;47657;-71
2022/03/11 09:52:20;;;;;;;;;3.00;2.67;;;;;17.03;40.90;100388.78;5043442;28;45511;-71
2022/03/11 09:54:45;;;;;;;;;3.67;2.67;;;;;16.67;40.87;100351.31;5051707;28;45362;-70
2022/03/11 09:57:22;;;;;;;;;5.67;5.67;;;;;16.87;41.49;100398.97;5040478;28;45427;-72
2022/03/11 09:59:47;;;;;;;;;3.67;3.67;;;;;16.75;41.49;100400.50;5042939;28;47266;-70
2022/03/11 10:02:16;;;;;;;;;4.00;4.00;;;;;16.21;42.10;100339.25;5034454;28;45329;-72
2022/03/11 10:04:58;;;;;;;;;4.33;4.33;;;;;16.62;42.25;100410.09;5034373;28;45572;-70
2022/03/11 10:07:31;;;;;;;;;7.00;4.33;;;;;16.53;42.15;100410.38;5052682;28;45327;-71
2022/03/11 10:10:10;;;;;;;;;5.00;4.00;;;;;16.50;42.28;100403.56;5044649;28;49197;-70
2022/03/11 10:12:42;;;;;;;;;4.33;3.33;;;;;15.29;43.29;100251.38;5056281;28;45528;-70
2022/03/11 10:15:08;;;;;;;;;4.00;4.00;;;;;15.72;43.98;100350.66;5038878;28;45585;-71
2022/03/11 10:17:42;;;;;;;;;2.33;2.33;;;;;15.68;45.67;100370.81;5018607;28;45526;-69
2022/03/11 10:20:10;;;;;;;;;2.00;2.00;;;;;15.72;45.45;100405.09;5037047;28;48422;-71
2022/03/11 10:22:37;;;;;;;;;3.33;3.33;;;;;15.65;45.26;100365.84;5059194;28;45250;-70
2022/03/11 10:25:14;;;;;;;;;7.33;5.33;;;;;15.86;45.25;100395.38;5055386;28;45527;-67
2022/03/11 10:28:02;;;;;;;;;3.00;3.00;;;;;16.06;45.15;100385.72;5055279;28;45455;-69
2022/03/11 10:30:33;;;;;;;;;6.67;5.33;;;;;15.77;44.37;100318.75;5039464;28;46744;-70
2022/03/11 10:33:04;;;;;;;;;4.00;4.00;;;;;16.34;44.49;100395.72;5039394;28;45301;-70
2022/03/11 10:35:36;;;;;;;;;4.67;3.67;;;;;16.24;43.97;100345.09;5042452;28;45525;-71
2022/03/11 10:38:08;;;;;;;;;2.67;2.67;;;;;16.52;44.05;100377.34;5037829;28;45524;-69
2022/03/11 10:40:39;;;;;;;;;4.00;4.00;;;;;16.45;44.14;100373.78;5037369;28;48294;-69
2022/03/11 10:43:32;;;;;;;;;6.33;4.67;;;;;16.48;44.30;100408.28;5038882;28;45569;-69
2022/03/11 10:46:03;;;;;;;;;3.33;3.33;;;;;16.50;44.03;100422.34;5042551;28;45480;-67
2022/03/11 10:48:49;;;;;;;;;5.00;5.00;;;;;16.48;44.25;100410.13;5059124;28;45570;-69
2022/03/11 10:51:28;;;;;;;;;3.33;3.33;;;;;16.30;44.27;100389.09;5043929;28;46090;-71
2022/03/11 10:53:55;;;;;;;;;6.33;4.67;;;;;16.00;45.25;100343.56;5041010;28;45561;-70
2022/03/11 10:56:40;;;;;;;;;4.67;4.67;;;;;16.05;46.44;100384.06;5037164;28;45430;-71
2022/03/11 10:59:05;;;;;;;;;4.67;4.00;;;;;15.40;46.90;100287.53;5039052;28;45431;-71
2022/03/11 11:01:35;;;;;;;;;3.33;3.33;;;;;16.04;47.75;100398.50;5039644;28;48348;-72
2022/03/11 11:04:07;;;;;;;;;4.67;4.67;;;;;16.03;47.81;100402.22;5038201;28;45401;-69
2022/03/11 11:06:34;;;;;;;;;4.00;2.67;;;;;16.15;47.50;100421.31;5038758;28;45562;-70
2022/03/11 11:09:00;;;;;;;;;5.00;3.00;;;;;15.89;47.56;100388.81;5038170;28;45312;-73
2022/03/11 11:11:26;;;;;;;;;6.33;5.00;;;;;16.02;47.60;100411.28;5038273;28;47568;-73
2022/03/11 11:13:52;;;;;;;;;2.00;2.00;;;;;16.02;47.52;100426.53;5046887;28;46254;-70
2022/03/11 11:16:23;;;;;;;;;5.00;3.67;;;;;15.06;47.90;100270.22;5050045;28;45873;-71